Impacts METAR Board
IDs:

KIAH - Houston/Bush Intl, TX, US

Updated at: 1500 UTC 21 May 2019
Potential Impact None Slight Moderate High
Time 21/03Z 21/04Z 21/05Z 21/06Z 21/07Z 21/08Z 21/09Z 21/10Z 21/11Z 21/12Z 21/13Z 21/14Z 21/15Z
Temp81 81 81 80 80 79 79 79 79 79 80 81 83
Dewpt75 75 74 74 74 73 73 73 73 73 73 73 73
Altim29.73 29.74 29.72 29.70 29.67 29.65 29.66 29.68 29.67 29.69 29.69 29.70 29.70
VIS10 10 10 10 10 10 10 10 10 10 10 10 10
CIG35 22 23 20 20 20 20 23 23 22 22 24 26
CoverBKNBKNBKNBKNBKNBKNBKNBKNBKNBKNBKNBKNBKN
FltCatVFRMVFRMVFRMVFRMVFRMVFRMVFRMVFRMVFRMVFRMVFRMVFRMVFR
WX--------------------------
WDir160160160160150160170170170170160160160
WSpd14 16 18 15 23 18 14 14 19 16 16 14 24
WGst24 20 26 27 28 24 21 22 27 23 24 27 31
Raw hourly METARs
KIAH 210253Z 16014G24KT 10SM SCT022 BKN035 27/24 A2973 RMK AO2 PK WND 15026/0200 SLP066 T02720239 56009
KIAH 210353Z 16016G20KT 10SM BKN022 BKN033 27/24 A2974 RMK AO2 PK WND 15027/0307 SLP068 T02720239
KIAH 210453Z 16018G26KT 10SM BKN023 BKN031 27/23 A2972 RMK AO2 PK WND 15029/0423 SLP061 T02720233
KIAH 210553Z 16015G27KT 10SM BKN020 BKN031 27/23 A2970 RMK AO2 PK WND 16029/0530 SLP055 T02670233 10289 20267 403220250 58012
KIAH 210653Z 15023G28KT 10SM BKN020 BKN028 27/23 A2967 RMK AO2 PK WND 14029/0638 PRESFR SLP044 T02670233
KIAH 210753Z 16018G24KT 10SM BKN020 26/23 A2965 RMK AO2 PK WND 16029/0659 SLP039 T02610228
KIAH 210853Z 17014G21KT 10SM BKN020 BKN030 26/23 A2966 RMK AO2 SLP041 T02610228 55014
KIAH 210953Z 17014G22KT 10SM BKN023 26/23 A2968 RMK AO2 PK WND 16026/0913 SLP047 T02610228
KIAH 211053Z 17019G27KT 10SM BKN023 26/23 A2967 RMK AO2 PK WND 17027/1052 SLP044 T02610228
KIAH 211153Z 17016G23KT 10SM BKN022 BKN250 26/23 A2969 RMK AO2 PK WND 15026/1056 SLP052 T02610228 10267 20261 53010
KIAH 211253Z 16016G24KT 10SM BKN022 BKN250 27/23 A2969 RMK AO2 PK WND 17026/1236 SLP051 T02670228
KIAH 211353Z 16014G27KT 10SM BKN024 BKN250 27/23 A2970 RMK AO2 PK WND 14027/1345 SLP057 T02720228
KIAH 211453Z 16024G31KT 10SM BKN026 BKN250 28/23 A2970 RMK AO2 PK WND 17031/1453 SLP055 T02830228 50003



Page loaded:  15:33 UTC  |   08:33 AM Pacific  |   09:33 AM Mountain  |   10:33 AM Central  |   11:33 AM Eastern

 

ADVISORIES

FORECASTS

FORECASTS

OBSERVATIONS

USER TOOLS

ABOUT US